Dupuyer, Montana
Current Conditions -  °F | °C
As of 6:56 PM on Thursday 20 Nov 2014 (Local Time) from KCTB Reporting Station
Clear Clear  
Wind Chill: 28°   Ceiling: Unl
Heat Index: 39°   Visibility: 10mi
Dew Point: 27°   Wind: 25mph
Humidity: 62%   Direction: 250°WSW
Pressure: 29.72"   Gusts: 35mph
Location:  48.19°N, 112.5°W
Report Text: KCTB 210156Z AUTO 25022G30KT 10SM CLR 04/M03 A2972 RMK AO2 PK WND 25036/0141 SLP101 T00391028
Loading
Personal Weather Stations






























Interactive Weather Map New forecast layout! Learn more

10-Day Weather Forecast

Advertisements
Track Severe Weather on mobile